sensor_id;sensor_type;location;lat;lon;timestamp;pressure;altitude;pressure_sealevel;temperature;humidity
4576;BME280;2300;51.874;8.430;2023-05-24T00:00:40;101445.69;;;6.80;87.38
4576;BME280;2300;51.874;8.430;2023-05-24T00:03:06;101450.38;;;6.86;87.09
4576;BME280;2300;51.874;8.430;2023-05-24T00:05:33;101446.66;;;6.79;87.01
4576;BME280;2300;51.874;8.430;2023-05-24T00:08:02;101387.63;;;6.42;86.73
4576;BME280;2300;51.874;8.430;2023-05-24T00:10:28;101441.72;;;6.68;87.31
4576;BME280;2300;51.874;8.430;2023-05-24T00:12:56;101395.03;;;6.34;86.95
4576;BME280;2300;51.874;8.430;2023-05-24T00:15:23;101454.03;;;6.64;87.71
4576;BME280;2300;51.874;8.430;2023-05-24T00:17:49;101390.13;;;6.29;87.45
4576;BME280;2300;51.874;8.430;2023-05-24T00:20:16;101454.31;;;6.54;88.58
4576;BME280;2300;51.874;8.430;2023-05-24T00:22:44;101396.03;;;6.03;88.48
4576;BME280;2300;51.874;8.430;2023-05-24T00:25:11;101451.28;;;6.35;89.48
4576;BME280;2300;51.874;8.430;2023-05-24T00:27:38;101443.22;;;6.41;90.53
4576;BME280;2300;51.874;8.430;2023-05-24T00:30:07;101381.00;;;5.93;90.59
4576;BME280;2300;51.874;8.430;2023-05-24T00:32:34;101352.69;;;5.79;91.24
4576;BME280;2300;51.874;8.430;2023-05-24T00:35:00;101315.94;;;5.38;90.98
4576;BME280;2300;51.874;8.430;2023-05-24T00:37:27;101348.34;;;5.70;90.72
4576;BME280;2300;51.874;8.430;2023-05-24T00:39:54;101446.22;;;6.32;90.87
4576;BME280;2300;51.874;8.430;2023-05-24T00:42:21;101369.09;;;5.71;90.64
4576;BME280;2300;51.874;8.430;2023-05-24T00:44:47;101340.03;;;5.49;91.50
4576;BME280;2300;51.874;8.430;2023-05-24T00:47:15;101432.47;;;6.10;92.08
4576;BME280;2300;51.874;8.430;2023-05-24T00:49:42;101429.06;;;6.08;92.51
4576;BME280;2300;51.874;8.430;2023-05-24T00:52:08;101361.31;;;5.68;92.84
4576;BME280;2300;51.874;8.430;2023-05-24T00:54:35;101359.88;;;5.57;93.15
4576;BME280;2300;51.874;8.430;2023-05-24T00:57:02;101398.59;;;5.90;93.33
4576;BME280;2300;51.874;8.430;2023-05-24T00:59:29;101348.41;;;5.62;92.22
4576;BME280;2300;51.874;8.430;2023-05-24T01:01:56;101362.63;;;5.72;92.10
4576;BME280;2300;51.874;8.430;2023-05-24T01:04:24;101392.44;;;5.88;91.45
4576;BME280;2300;51.874;8.430;2023-05-24T01:07:03;101430.66;;;6.03;91.53
4576;BME280;2300;51.874;8.430;2023-05-24T01:09:34;101364.28;;;5.58;91.31
4576;BME280;2300;51.874;8.430;2023-05-24T01:12:12;101352.59;;;5.50;91.57
4576;BME280;2300;51.874;8.430;2023-05-24T01:14:49;101402.19;;;5.68;91.02
4576;BME280;2300;51.874;8.430;2023-05-24T01:17:20;101375.63;;;5.47;91.13
4576;BME280;2300;51.874;8.430;2023-05-24T01:19:55;101364.72;;;5.24;92.83
4576;BME280;2300;51.874;8.430;2023-05-24T01:22:41;101414.09;;;5.67;94.15
4576;BME280;2300;51.874;8.430;2023-05-24T01:25:26;101345.00;;;5.22;94.95
4576;BME280;2300;51.874;8.430;2023-05-24T01:27:54;101359.38;;;5.08;95.95
4576;BME280;2300;51.874;8.430;2023-05-24T01:30:21;101391.50;;;5.44;96.24
4576;BME280;2300;51.874;8.430;2023-05-24T01:32:48;101333.44;;;5.20;96.74
4576;BME280;2300;51.874;8.430;2023-05-24T01:35:15;101375.16;;;5.44;96.30
4576;BME280;2300;51.874;8.430;2023-05-24T01:37:41;101372.53;;;5.27;97.49
4576;BME280;2300;51.874;8.430;2023-05-24T01:40:09;101408.06;;;5.57;97.43
4576;BME280;2300;51.874;8.430;2023-05-24T01:42:40;101340.88;;;5.04;97.17
4576;BME280;2300;51.874;8.430;2023-05-24T01:45:15;101407.69;;;5.60;97.02
4576;BME280;2300;51.874;8.430;2023-05-24T01:47:57;101407.25;;;5.71;96.81
4576;BME280;2300;51.874;8.430;2023-05-24T01:50:30;101335.25;;;5.28;95.62
4576;BME280;2300;51.874;8.430;2023-05-24T01:53:02;101408.06;;;5.57;95.17
4576;BME280;2300;51.874;8.430;2023-05-24T01:55:30;101322.03;;;5.02;95.56
4576;BME280;2300;51.874;8.430;2023-05-24T01:58:01;101396.94;;;5.44;96.52
4576;BME280;2300;51.874;8.430;2023-05-24T02:00:30;101395.28;;;5.57;96.24
4576;BME280;2300;51.874;8.430;2023-05-24T02:02:57;101391.06;;;5.32;95.84
4576;BME280;2300;51.874;8.430;2023-05-24T02:05:23;101391.88;;;5.55;95.71
4576;BME280;2300;51.874;8.430;2023-05-24T02:07:50;101325.03;;;5.07;95.09
4576;BME280;2300;51.874;8.430;2023-05-24T02:10:16;101395.88;;;5.45;94.49
4576;BME280;2300;51.874;8.430;2023-05-24T02:12:43;101327.94;;;5.06;94.41
4576;BME280;2300;51.874;8.430;2023-05-24T02:15:10;101307.59;;;4.94;94.54
4576;BME280;2300;51.874;8.430;2023-05-24T02:17:40;101385.44;;;5.33;94.95
4576;BME280;2300;51.874;8.430;2023-05-24T02:20:07;101383.19;;;5.37;94.77
4576;BME280;2300;51.874;8.430;2023-05-24T02:22:34;101322.38;;;4.99;94.65
4576;BME280;2300;51.874;8.430;2023-05-24T02:25:01;101393.63;;;5.33;94.30
4576;BME280;2300;51.874;8.430;2023-05-24T02:27:27;101394.94;;;5.38;94.59
4576;BME280;2300;51.874;8.430;2023-05-24T02:29:54;101391.72;;;5.34;94.52
4576;BME280;2300;51.874;8.430;2023-05-24T02:32:20;101328.53;;;4.93;94.45
4576;BME280;2300;51.874;8.430;2023-05-24T02:34:48;101394.50;;;5.26;94.60
4576;BME280;2300;51.874;8.430;2023-05-24T02:37:14;101402.84;;;5.24;94.15
4576;BME280;2300;51.874;8.430;2023-05-24T02:39:40;101366.53;;;5.09;94.29
4576;BME280;2300;51.874;8.430;2023-05-24T02:42:07;101365.78;;;4.93;93.68
4576;BME280;2300;51.874;8.430;2023-05-24T02:44:35;101314.94;;;4.62;94.36
4576;BME280;2300;51.874;8.430;2023-05-24T02:47:02;101319.34;;;4.71;95.38
4576;BME280;2300;51.874;8.430;2023-05-24T02:49:28;101327.34;;;4.65;96.70
4576;BME280;2300;51.874;8.430;2023-05-24T02:51:56;101348.22;;;4.72;97.33
4576;BME280;2300;51.874;8.430;2023-05-24T02:54:22;101395.22;;;5.20;97.04
4576;BME280;2300;51.874;8.430;2023-05-24T02:56:49;101327.25;;;4.81;96.22
4576;BME280;2300;51.874;8.430;2023-05-24T02:59:16;101335.28;;;4.74;95.91
4576;BME280;2300;51.874;8.430;2023-05-24T03:01:42;101396.13;;;5.12;96.00
4576;BME280;2300;51.874;8.430;2023-05-24T03:04:09;101337.53;;;4.71;96.03
4576;BME280;2300;51.874;8.430;2023-05-24T03:06:35;101404.00;;;5.07;96.43
4576;BME280;2300;51.874;8.430;2023-05-24T03:09:03;101397.16;;;5.11;96.12
4576;BME280;2300;51.874;8.430;2023-05-24T03:11:29;101398.56;;;5.07;95.69
4576;BME280;2300;51.874;8.430;2023-05-24T03:13:56;101393.75;;;5.09;96.21
4576;BME280;2300;51.874;8.430;2023-05-24T03:16:22;101324.41;;;4.74;96.60
4576;BME280;2300;51.874;8.430;2023-05-24T03:18:49;101327.44;;;4.79;96.08
4576;BME280;2300;51.874;8.430;2023-05-24T03:21:16;101399.28;;;5.24;95.81
4576;BME280;2300;51.874;8.430;2023-05-24T03:23:44;101322.16;;;4.78;96.08
4576;BME280;2300;51.874;8.430;2023-05-24T03:26:12;101401.91;;;5.17;96.21
4576;BME280;2300;51.874;8.430;2023-05-24T03:28:38;101409.66;;;5.28;96.50
4576;BME280;2300;51.874;8.430;2023-05-24T03:31:06;101407.75;;;5.29;96.75
4576;BME280;2300;51.874;8.430;2023-05-24T03:33:32;101356.06;;;4.98;96.36
4576;BME280;2300;51.874;8.430;2023-05-24T03:35:58;101406.00;;;5.36;95.73
4576;BME280;2300;51.874;8.430;2023-05-24T03:38:25;101412.59;;;5.42;95.97
4576;BME280;2300;51.874;8.430;2023-05-24T03:40:51;101317.41;;;4.80;95.61
4576;BME280;2300;51.874;8.430;2023-05-24T03:43:19;101417.69;;;5.45;96.02
4576;BME280;2300;51.874;8.430;2023-05-24T03:45:46;101326.97;;;4.99;95.63
4576;BME280;2300;51.874;8.430;2023-05-24T03:48:12;101351.81;;;5.18;95.72
4576;BME280;2300;51.874;8.430;2023-05-24T03:50:39;101361.22;;;5.39;95.98
4576;BME280;2300;51.874;8.430;2023-05-24T03:53:06;101359.53;;;5.38;97.22
4576;BME280;2300;51.874;8.430;2023-05-24T03:55:32;101342.22;;;5.30;97.09
4576;BME280;2300;51.874;8.430;2023-05-24T03:57:58;101352.38;;;5.59;97.15
4576;BME280;2300;51.874;8.430;2023-05-24T04:00:26;101361.31;;;5.68;97.84
4576;BME280;2300;51.874;8.430;2023-05-24T04:02:53;101420.88;;;6.08;97.54
4576;BME280;2300;51.874;8.430;2023-05-24T04:05:22;101352.31;;;5.82;97.53
4576;BME280;2300;51.874;8.430;2023-05-24T04:07:51;101365.47;;;5.93;97.46
4576;BME280;2300;51.874;8.430;2023-05-24T04:10:17;101367.53;;;5.91;97.32
4576;BME280;2300;51.874;8.430;2023-05-24T04:12:44;101354.28;;;5.88;97.38
4576;BME280;2300;51.874;8.430;2023-05-24T04:15:10;101388.72;;;6.18;97.04
4576;BME280;2300;51.874;8.430;2023-05-24T04:17:40;101364.19;;;6.18;96.89
4576;BME280;2300;51.874;8.430;2023-05-24T04:20:08;101350.66;;;6.10;96.62
4576;BME280;2300;51.874;8.430;2023-05-24T04:22:35;101418.47;;;6.57;97.02
4576;BME280;2300;51.874;8.430;2023-05-24T04:25:01;101372.28;;;6.27;96.96
4576;BME280;2300;51.874;8.430;2023-05-24T04:27:28;101338.78;;;6.03;96.30
4576;BME280;2300;51.874;8.430;2023-05-24T04:29:55;101390.22;;;6.50;96.86
4576;BME280;2300;51.874;8.430;2023-05-24T04:32:21;101311.91;;;6.00;96.34
4576;BME280;2300;51.874;8.430;2023-05-24T04:34:50;101342.47;;;6.25;96.83
4576;BME280;2300;51.874;8.430;2023-05-24T04:37:17;101399.66;;;6.63;96.65
4576;BME280;2300;51.874;8.430;2023-05-24T04:39:44;101345.00;;;6.27;96.84
4576;BME280;2300;51.874;8.430;2023-05-24T04:42:11;101365.88;;;6.34;97.15
4576;BME280;2300;51.874;8.430;2023-05-24T04:44:39;101351.19;;;6.50;97.03
4576;BME280;2300;51.874;8.430;2023-05-24T04:47:07;101343.75;;;6.44;97.16
4576;BME280;2300;51.874;8.430;2023-05-24T04:49:34;101360.75;;;6.75;96.75
4576;BME280;2300;51.874;8.430;2023-05-24T04:52:03;101351.69;;;6.89;96.66
4576;BME280;2300;51.874;8.430;2023-05-24T04:54:30;101357.75;;;7.06;95.85
4576;BME280;2300;51.874;8.430;2023-05-24T04:56:57;101355.78;;;7.15;95.83
4576;BME280;2300;51.874;8.430;2023-05-24T04:59:27;101366.97;;;7.41;95.18
4576;BME280;2300;51.874;8.430;2023-05-24T05:01:54;101377.25;;;7.60;94.92
4576;BME280;2300;51.874;8.430;2023-05-24T05:04:21;101423.94;;;8.14;93.59
4576;BME280;2300;51.874;8.430;2023-05-24T05:06:50;101347.91;;;7.75;93.54
4576;BME280;2300;51.874;8.430;2023-05-24T05:09:18;101426.59;;;8.29;91.34
4576;BME280;2300;51.874;8.430;2023-05-24T05:11:45;101330.31;;;7.84;91.67
4576;BME280;2300;51.874;8.430;2023-05-24T05:14:12;101431.03;;;8.64;90.92
4576;BME280;2300;51.874;8.430;2023-05-24T05:16:38;101423.81;;;8.57;90.10
4576;BME280;2300;51.874;8.430;2023-05-24T05:19:05;101366.66;;;8.41;90.01
4576;BME280;2300;51.874;8.430;2023-05-24T05:21:32;101385.44;;;8.50;89.92
4576;BME280;2300;51.874;8.430;2023-05-24T05:23:59;101424.41;;;8.87;89.21
4576;BME280;2300;51.874;8.430;2023-05-24T05:26:27;101432.91;;;8.98;88.68
4576;BME280;2300;51.874;8.430;2023-05-24T05:28:53;101432.25;;;8.90;89.37
4576;BME280;2300;51.874;8.430;2023-05-24T05:31:20;101435.44;;;9.00;88.86
4576;BME280;2300;51.874;8.430;2023-05-24T05:33:46;101420.34;;;9.17;88.82
4576;BME280;2300;51.874;8.430;2023-05-24T05:36:13;101392.00;;;8.90;87.84
4576;BME280;2300;51.874;8.430;2023-05-24T05:38:40;101438.78;;;9.56;88.04
4576;BME280;2300;51.874;8.430;2023-05-24T05:41:06;101442.19;;;11.14;86.02
4576;BME280;2300;51.874;8.430;2023-05-24T05:43:34;101429.91;;;12.42;78.81
4576;BME280;2300;51.874;8.430;2023-05-24T05:46:01;101428.34;;;14.20;72.93
4576;BME280;2300;51.874;8.430;2023-05-24T05:48:27;101429.44;;;13.66;71.77
4576;BME280;2300;51.874;8.430;2023-05-24T05:50:54;101433.81;;;12.71;72.82
4576;BME280;2300;51.874;8.430;2023-05-24T05:53:20;101445.03;;;11.77;75.79
4576;BME280;2300;51.874;8.430;2023-05-24T06:02:31;101431.63;;;10.60;80.39
4576;BME280;2300;51.874;8.430;2023-05-24T06:04:58;101458.91;;;10.35;81.89
4576;BME280;2300;51.874;8.430;2023-05-24T06:07:24;101445.34;;;10.54;82.56
4576;BME280;2300;51.874;8.430;2023-05-24T06:09:51;101437.81;;;11.00;81.88
4576;BME280;2300;51.874;8.430;2023-05-24T06:12:17;101465.53;;;11.50;80.60
4576;BME280;2300;51.874;8.430;2023-05-24T06:14:44;101458.50;;;11.54;79.67
4576;BME280;2300;51.874;8.430;2023-05-24T06:27:47;101461.72;;;11.82;76.65
4576;BME280;2300;51.874;8.430;2023-05-24T06:30:13;101461.72;;;11.82;77.77
4576;BME280;2300;51.874;8.430;2023-05-24T06:32:40;101456.22;;;11.82;77.66
4576;BME280;2300;51.874;8.430;2023-05-24T06:37:35;101457.69;;;12.16;77.00
4576;BME280;2300;51.874;8.430;2023-05-24T06:40:03;101447.66;;;11.27;78.19
4576;BME280;2300;51.874;8.430;2023-05-24T06:42:30;101453.41;;;11.64;78.82
4576;BME280;2300;51.874;8.430;2023-05-24T06:44:58;101460.25;;;11.42;78.34
4576;BME280;2300;51.874;8.430;2023-05-24T06:47:25;101455.63;;;11.36;79.46
4576;BME280;2300;51.874;8.430;2023-05-24T06:49:51;101462.03;;;11.99;80.21
4576;BME280;2300;51.874;8.430;2023-05-24T06:55:37;101462.44;;;12.52;76.34
4576;BME280;2300;51.874;8.430;2023-05-24T06:58:04;101458.19;;;12.49;76.07
4576;BME280;2300;51.874;8.430;2023-05-24T07:00:33;101461.34;;;12.28;76.40
4576;BME280;2300;51.874;8.430;2023-05-24T07:02:59;101457.13;;;11.76;77.81
4576;BME280;2300;51.874;8.430;2023-05-24T07:05:26;101474.94;;;11.67;78.53
4576;BME280;2300;51.874;8.430;2023-05-24T07:07:52;101464.19;;;11.59;79.00
4576;BME280;2300;51.874;8.430;2023-05-24T07:10:19;101474.63;;;11.50;79.72
4576;BME280;2300;51.874;8.430;2023-05-24T07:12:45;101454.38;;;11.38;80.54
4576;BME280;2300;51.874;8.430;2023-05-24T07:15:12;101478.16;;;11.64;79.94
4576;BME280;2300;51.874;8.430;2023-05-24T07:17:40;101475.78;;;11.61;80.51
4576;BME280;2300;51.874;8.430;2023-05-24T07:20:07;101475.38;;;11.71;79.18
4576;BME280;2300;51.874;8.430;2023-05-24T07:22:35;101477.16;;;11.90;79.57
4576;BME280;2300;51.874;8.430;2023-05-24T07:25:02;101484.88;;;12.06;78.33
4576;BME280;2300;51.874;8.430;2023-05-24T07:27:29;101474.75;;;12.00;78.69
4576;BME280;2300;51.874;8.430;2023-05-24T07:29:56;101477.72;;;12.48;77.59
4576;BME280;2300;51.874;8.430;2023-05-24T07:32:22;101472.97;;;12.12;77.68
4576;BME280;2300;51.874;8.430;2023-05-24T07:34:50;101473.72;;;12.69;76.49
4576;BME280;2300;51.874;8.430;2023-05-24T07:37:17;101479.44;;;12.67;76.37
4576;BME280;2300;51.874;8.430;2023-05-24T07:39:43;101479.59;;;12.72;75.98
4576;BME280;2300;51.874;8.430;2023-05-24T07:42:10;101482.81;;;12.69;75.72
4576;BME280;2300;51.874;8.430;2023-05-24T07:44:36;101460.69;;;12.76;75.17
4576;BME280;2300;51.874;8.430;2023-05-24T07:47:03;101485.94;;;12.98;74.72
4576;BME280;2300;51.874;8.430;2023-05-24T07:49:29;101487.78;;;13.04;75.12
4576;BME280;2300;51.874;8.430;2023-05-24T07:51:58;101476.06;;;12.90;73.56
4576;BME280;2300;51.874;8.430;2023-05-24T07:54:24;101470.53;;;12.47;74.81
4576;BME280;2300;51.874;8.430;2023-05-24T07:56:51;101459.53;;;12.65;74.62
4576;BME280;2300;51.874;8.430;2023-05-24T07:59:17;101477.84;;;13.32;74.46
4576;BME280;2300;51.874;8.430;2023-05-24T08:01:44;101471.28;;;13.63;72.96
4576;BME280;2300;51.874;8.430;2023-05-24T08:04:11;101456.63;;;13.33;73.07
4576;BME280;2300;51.874;8.430;2023-05-24T08:06:38;101441.47;;;13.42;72.62
4576;BME280;2300;51.874;8.430;2023-05-24T08:09:06;101481.38;;;13.69;70.37
4576;BME280;2300;51.874;8.430;2023-05-24T08:11:33;101471.38;;;13.09;71.92
4576;BME280;2300;51.874;8.430;2023-05-24T08:17:21;101481.94;;;12.93;72.37
4576;BME280;2300;51.874;8.430;2023-05-24T08:19:48;101443.03;;;12.83;71.26
4576;BME280;2300;51.874;8.430;2023-05-24T08:22:14;101459.69;;;12.70;71.43
4576;BME280;2300;51.874;8.430;2023-05-24T08:24:42;101376.72;;;12.60;72.26
4576;BME280;2300;51.874;8.430;2023-05-24T08:27:09;101472.97;;;13.64;69.02
4576;BME280;2300;51.874;8.430;2023-05-24T08:29:36;101442.69;;;13.46;68.64
4576;BME280;2300;51.874;8.430;2023-05-24T08:32:03;101451.81;;;13.88;69.51
4576;BME280;2300;51.874;8.430;2023-05-24T08:34:33;101456.56;;;13.69;67.53
4576;BME280;2300;51.874;8.430;2023-05-24T08:37:00;101478.13;;;13.31;69.44
4576;BME280;2300;51.874;8.430;2023-05-24T08:39:27;101476.22;;;13.43;68.07
4576;BME280;2300;51.874;8.430;2023-05-24T08:41:56;101472.19;;;13.46;70.22
4576;BME280;2300;51.874;8.430;2023-05-24T08:44:23;101470.84;;;13.48;71.04
4576;BME280;2300;51.874;8.430;2023-05-24T08:46:52;101484.50;;;13.61;69.68
4576;BME280;2300;51.874;8.430;2023-05-24T08:49:18;101472.78;;;13.77;68.41
4576;BME280;2300;51.874;8.430;2023-05-24T08:51:46;101470.34;;;13.69;70.81
4576;BME280;2300;51.874;8.430;2023-05-24T08:54:13;101478.03;;;13.67;70.20
4576;BME280;2300;51.874;8.430;2023-05-24T08:56:40;101471.00;;;13.53;68.66
4576;BME280;2300;51.874;8.430;2023-05-24T08:59:09;101472.84;;;13.59;69.11
4576;BME280;2300;51.874;8.430;2023-05-24T09:01:39;101431.81;;;13.33;69.89
4576;BME280;2300;51.874;8.430;2023-05-24T09:04:06;101445.16;;;13.18;69.11
4576;BME280;2300;51.874;8.430;2023-05-24T09:06:34;101433.06;;;12.82;69.79
4576;BME280;2300;51.874;8.430;2023-05-24T09:09:02;101467.56;;;13.10;69.97
4576;BME280;2300;51.874;8.430;2023-05-24T09:11:30;101466.63;;;12.98;70.57
4576;BME280;2300;51.874;8.430;2023-05-24T09:13:59;101468.19;;;12.69;69.98
4576;BME280;2300;51.874;8.430;2023-05-24T09:16:27;101411.56;;;12.11;70.01
4576;BME280;2300;51.874;8.430;2023-05-24T09:18:54;101447.09;;;12.38;70.42
4576;BME280;2300;51.874;8.430;2023-05-24T09:21:21;101435.78;;;12.46;69.94
4576;BME280;2300;51.874;8.430;2023-05-24T09:23:48;101405.75;;;12.20;70.76
4576;BME280;2300;51.874;8.430;2023-05-24T09:26:15;101485.06;;;12.79;70.32
4576;BME280;2300;51.874;8.430;2023-05-24T09:28:42;101474.78;;;12.68;70.04
4576;BME280;2300;51.874;8.430;2023-05-24T09:31:09;101461.19;;;12.48;70.54
4576;BME280;2300;51.874;8.430;2023-05-24T09:33:38;101476.31;;;12.64;70.12
4576;BME280;2300;51.874;8.430;2023-05-24T09:36:05;101498.59;;;12.80;69.60
4576;BME280;2300;51.874;8.430;2023-05-24T09:38:32;101464.91;;;12.78;69.49
4576;BME280;2300;51.874;8.430;2023-05-24T09:41:01;101488.38;;;12.87;71.27
4576;BME280;2300;51.874;8.430;2023-05-24T09:43:28;101498.75;;;12.85;70.34
4576;BME280;2300;51.874;8.430;2023-05-24T09:45:55;101492.69;;;12.77;70.60
4576;BME280;2300;51.874;8.430;2023-05-24T09:48:24;101499.69;;;12.79;70.32
4576;BME280;2300;51.874;8.430;2023-05-24T09:51:04;101479.13;;;12.75;70.77
4576;BME280;2300;51.874;8.430;2023-05-24T09:53:32;101467.09;;;12.51;70.58
4576;BME280;2300;51.874;8.430;2023-05-24T09:55:59;101493.22;;;12.67;71.66
4576;BME280;2300;51.874;8.430;2023-05-24T09:58:28;101450.50;;;12.58;71.53
4576;BME280;2300;51.874;8.430;2023-05-24T10:01:02;101495.72;;;12.93;72.91
4576;BME280;2300;51.874;8.430;2023-05-24T10:03:30;101475.19;;;13.08;72.79
4576;BME280;2300;51.874;8.430;2023-05-24T10:06:11;101478.34;;;13.11;71.92
4576;BME280;2300;51.874;8.430;2023-05-24T10:08:38;101477.97;;;13.08;71.89
4576;BME280;2300;51.874;8.430;2023-05-24T10:11:06;101491.56;;;13.39;73.14
4576;BME280;2300;51.874;8.430;2023-05-24T10:13:33;101442.63;;;13.16;72.62
4576;BME280;2300;51.874;8.430;2023-05-24T10:16:01;101492.16;;;13.59;72.77
4576;BME280;2300;51.874;8.430;2023-05-24T10:18:28;101476.88;;;13.27;69.94
4576;BME280;2300;51.874;8.430;2023-05-24T10:20:55;101475.59;;;13.59;70.60
4576;BME280;2300;51.874;8.430;2023-05-24T10:23:25;101491.41;;;13.52;68.07
4576;BME280;2300;51.874;8.430;2023-05-24T10:25:56;101480.53;;;13.39;67.30
4576;BME280;2300;51.874;8.430;2023-05-24T10:28:28;101493.75;;;13.19;67.03
4576;BME280;2300;51.874;8.430;2023-05-24T10:31:01;101499.78;;;13.27;68.29
4576;BME280;2300;51.874;8.430;2023-05-24T10:33:29;101486.91;;;13.39;68.23
4576;BME280;2300;51.874;8.430;2023-05-24T10:35:57;101510.41;;;13.60;66.63
4576;BME280;2300;51.874;8.430;2023-05-24T10:38:29;101501.50;;;13.58;66.19
4576;BME280;2300;51.874;8.430;2023-05-24T10:40:58;101500.41;;;13.77;67.41
4576;BME280;2300;51.874;8.430;2023-05-24T10:43:24;101507.75;;;13.95;67.51
4576;BME280;2300;51.874;8.430;2023-05-24T10:45:51;101423.59;;;13.15;66.94
4576;BME280;2300;51.874;8.430;2023-05-24T10:48:39;101503.03;;;13.72;66.97
4576;BME280;2300;51.874;8.430;2023-05-24T10:51:28;101509.28;;;13.79;67.56
4576;BME280;2300;51.874;8.430;2023-05-24T10:53:57;101420.97;;;13.20;66.01
4576;BME280;2300;51.874;8.430;2023-05-24T10:56:39;101506.66;;;13.55;66.93
4576;BME280;2300;51.874;8.430;2023-05-24T10:59:06;101507.13;;;13.81;69.28
4576;BME280;2300;51.874;8.430;2023-05-24T11:01:33;101466.88;;;13.62;68.11
4576;BME280;2300;51.874;8.430;2023-05-24T11:04:07;101501.25;;;14.08;67.25
4576;BME280;2300;51.874;8.430;2023-05-24T11:06:47;101516.88;;;14.14;67.71
4576;BME280;2300;51.874;8.430;2023-05-24T11:09:16;101457.75;;;13.62;67.71
4576;BME280;2300;51.874;8.430;2023-05-24T11:11:45;101442.41;;;13.18;70.50
4576;BME280;2300;51.874;8.430;2023-05-24T11:14:13;101503.25;;;13.71;72.38
4576;BME280;2300;51.874;8.430;2023-05-24T11:16:44;101479.41;;;13.58;72.24
4576;BME280;2300;51.874;8.430;2023-05-24T11:19:18;101498.72;;;13.76;74.03
4576;BME280;2300;51.874;8.430;2023-05-24T11:21:45;101448.66;;;13.73;72.01
4576;BME280;2300;51.874;8.430;2023-05-24T11:24:12;101444.38;;;13.89;71.15
4576;BME280;2300;51.874;8.430;2023-05-24T11:26:40;101486.63;;;14.19;70.75
4576;BME280;2300;51.874;8.430;2023-05-24T11:29:07;101503.34;;;14.47;70.23
4576;BME280;2300;51.874;8.430;2023-05-24T11:31:34;101500.00;;;14.80;71.07
4576;BME280;2300;51.874;8.430;2023-05-24T11:34:08;101508.78;;;14.65;70.59
4576;BME280;2300;51.874;8.430;2023-05-24T11:36:35;101504.41;;;14.93;68.03
4576;BME280;2300;51.874;8.430;2023-05-24T11:39:07;101506.94;;;14.94;71.18
4576;BME280;2300;51.874;8.430;2023-05-24T11:41:36;101511.78;;;15.11;70.85
4576;BME280;2300;51.874;8.430;2023-05-24T11:44:07;101483.06;;;14.77;69.61
4576;BME280;2300;51.874;8.430;2023-05-24T11:46:33;101511.38;;;15.30;68.15
4576;BME280;2300;51.874;8.430;2023-05-24T11:49:01;101506.25;;;15.50;68.19
4576;BME280;2300;51.874;8.430;2023-05-24T11:51:28;101477.53;;;15.40;67.87
4576;BME280;2300;51.874;8.430;2023-05-24T11:53:55;101500.31;;;15.19;68.31
4576;BME280;2300;51.874;8.430;2023-05-24T11:56:22;101489.06;;;14.74;69.17
4576;BME280;2300;51.874;8.430;2023-05-24T11:58:50;101495.03;;;14.94;68.50
4576;BME280;2300;51.874;8.430;2023-05-24T12:01:25;101471.72;;;14.66;69.07
4576;BME280;2300;51.874;8.430;2023-05-24T12:03:52;101493.72;;;14.96;69.29
4576;BME280;2300;51.874;8.430;2023-05-24T12:06:19;101490.00;;;15.02;68.45
4576;BME280;2300;51.874;8.430;2023-05-24T12:08:47;101434.59;;;14.97;66.98
4576;BME280;2300;51.874;8.430;2023-05-24T12:11:15;101439.84;;;15.11;65.91
4576;BME280;2300;51.874;8.430;2023-05-24T12:13:42;101484.47;;;15.54;68.75
4576;BME280;2300;51.874;8.430;2023-05-24T12:16:10;101486.91;;;15.79;67.28
4576;BME280;2300;51.874;8.430;2023-05-24T12:18:38;101480.00;;;15.81;67.85
4576;BME280;2300;51.874;8.430;2023-05-24T12:21:08;101435.94;;;15.63;65.80
4576;BME280;2300;51.874;8.430;2023-05-24T12:23:36;101484.41;;;15.66;66.85
4576;BME280;2300;51.874;8.430;2023-05-24T12:26:03;101491.75;;;15.43;67.39
4576;BME280;2300;51.874;8.430;2023-05-24T12:28:34;101453.91;;;15.09;65.55
4576;BME280;2300;51.874;8.430;2023-05-24T12:31:01;101484.47;;;15.14;66.12
4576;BME280;2300;51.874;8.430;2023-05-24T12:33:29;101490.13;;;14.73;67.50
4576;BME280;2300;51.874;8.430;2023-05-24T12:35:57;101485.09;;;14.81;67.02
4576;BME280;2300;51.874;8.430;2023-05-24T12:38:24;101470.41;;;14.57;67.81
4576;BME280;2300;51.874;8.430;2023-05-24T12:40:51;101419.38;;;14.13;67.83
4576;BME280;2300;51.874;8.430;2023-05-24T12:43:18;101481.81;;;14.26;69.61
4576;BME280;2300;51.874;8.430;2023-05-24T12:45:45;101490.91;;;14.15;69.45
4576;BME280;2300;51.874;8.430;2023-05-24T12:48:12;101419.56;;;13.59;69.25
4576;BME280;2300;51.874;8.430;2023-05-24T12:50:39;101486.72;;;14.12;69.78
4576;BME280;2300;51.874;8.430;2023-05-24T12:53:06;101491.97;;;13.72;70.49
4576;BME280;2300;51.874;8.430;2023-05-24T12:55:33;101491.69;;;13.62;70.62
4576;BME280;2300;51.874;8.430;2023-05-24T12:58:00;101485.69;;;13.65;70.08
4576;BME280;2300;51.874;8.430;2023-05-24T13:00:30;101496.03;;;13.70;70.65
4576;BME280;2300;51.874;8.430;2023-05-24T13:02:57;101459.31;;;13.39;70.44
4576;BME280;2300;51.874;8.430;2023-05-24T13:05:24;101492.72;;;13.50;71.87
4576;BME280;2300;51.874;8.430;2023-05-24T13:07:52;101498.63;;;13.35;71.03
4576;BME280;2300;51.874;8.430;2023-05-24T13:10:22;101485.59;;;13.42;70.46
4576;BME280;2300;51.874;8.430;2023-05-24T13:12:48;101461.09;;;13.34;71.43
4576;BME280;2300;51.874;8.430;2023-05-24T13:15:18;101490.13;;;13.36;71.97
4576;BME280;2300;51.874;8.430;2023-05-24T13:17:47;101484.38;;;13.38;72.39
4576;BME280;2300;51.874;8.430;2023-05-24T13:20:14;101496.53;;;13.78;72.25
4576;BME280;2300;51.874;8.430;2023-05-24T13:22:42;101494.94;;;14.01;71.47
4576;BME280;2300;51.874;8.430;2023-05-24T13:25:09;101494.09;;;13.89;72.09
4576;BME280;2300;51.874;8.430;2023-05-24T13:27:37;101459.09;;;13.71;70.61
4576;BME280;2300;51.874;8.430;2023-05-24T13:30:04;101486.97;;;13.81;71.74
4576;BME280;2300;51.874;8.430;2023-05-24T13:32:31;101461.63;;;13.84;70.88
4576;BME280;2300;51.874;8.430;2023-05-24T13:34:57;101476.16;;;13.79;71.58
4576;BME280;2300;51.874;8.430;2023-05-24T13:37:24;101444.94;;;13.67;71.75
4576;BME280;2300;51.874;8.430;2023-05-24T13:39:50;101489.22;;;14.02;70.93
4576;BME280;2300;51.874;8.430;2023-05-24T13:42:17;101476.53;;;13.83;70.41
4576;BME280;2300;51.874;8.430;2023-05-24T13:44:45;101455.97;;;13.67;71.04